createdAt,value
2019-03-09T00:02:26.284Z,56.90
2019-03-09T00:07:31.768Z,56.69
2019-03-09T00:12:37.290Z,56.79
2019-03-09T00:17:42.638Z,56.93
2019-03-09T00:22:49.600Z,57.34
2019-03-09T00:27:58.905Z,57.40
2019-03-09T00:33:04.147Z,57.59
2019-03-09T00:38:09.268Z,57.74
2019-03-09T00:43:14.382Z,58.02
2019-03-09T00:48:19.533Z,58.50
2019-03-09T00:53:24.905Z,58.54
2019-03-09T00:58:30.295Z,58.73
2019-03-09T01:03:35.628Z,59.07
2019-03-09T01:08:40.814Z,59.32
2019-03-09T01:13:46.343Z,59.37
2019-03-09T01:18:51.505Z,59.36
2019-03-09T01:23:56.756Z,59.51
2019-03-09T01:29:02.325Z,59.93
2019-03-09T01:34:07.593Z,59.98
2019-03-09T01:39:12.962Z,60.49
2019-03-09T01:44:18.614Z,60.76
2019-03-09T01:49:23.956Z,61.22
2019-03-09T01:54:29.226Z,61.53
2019-03-09T01:59:34.680Z,61.89
2019-03-09T02:04:39.942Z,61.47
2019-03-09T02:09:45.178Z,61.68
2019-03-09T02:14:50.454Z,61.74
2019-03-09T02:19:55.801Z,61.93
2019-03-09T02:25:01.173Z,62.05
2019-03-09T02:30:12.564Z,62.25
2019-03-09T02:35:18.844Z,62.21
2019-03-09T02:40:25.863Z,62.36
2019-03-09T02:45:32.223Z,62.39
2019-03-09T02:50:39.090Z,62.46
2019-03-09T02:55:44.244Z,62.51
2019-03-09T03:00:57.017Z,62.65
2019-03-09T03:06:02.877Z,62.80
2019-03-09T03:11:08.145Z,62.77
2019-03-09T03:16:13.228Z,62.76
2019-03-09T03:21:18.442Z,62.87
2019-03-09T03:26:23.610Z,63.01
2019-03-09T03:31:29.155Z,62.97
2019-03-09T03:36:34.695Z,63.14
2019-03-09T03:41:40.002Z,63.23
2019-03-09T03:46:45.694Z,63.27
2019-03-09T03:51:50.904Z,63.18
2019-03-09T03:56:56.359Z,63.06
2019-03-09T04:02:02.025Z,62.90
2019-03-09T04:07:07.605Z,63.00
2019-03-09T04:12:13.702Z,62.88
2019-03-09T04:17:19.073Z,62.82
2019-03-09T04:22:24.387Z,62.76
2019-03-09T04:27:29.760Z,62.87
2019-03-09T04:32:34.933Z,62.80
2019-03-09T04:37:40.363Z,62.38
2019-03-09T04:42:45.822Z,61.95
2019-03-09T04:47:51.183Z,61.86
2019-03-09T04:52:56.536Z,61.40
2019-03-09T04:58:01.907Z,60.95
2019-03-09T05:03:07.421Z,60.54
2019-03-09T05:08:18.453Z,60.42
2019-03-09T05:13:26.885Z,60.15
2019-03-09T05:18:32.154Z,60.40
2019-03-09T05:23:37.387Z,60.46
2019-03-09T05:28:42.764Z,60.34
2019-03-09T05:33:48.211Z,61.01
2019-03-09T05:38:53.581Z,61.46
2019-03-09T05:43:58.726Z,61.79
2019-03-09T05:49:05.308Z,62.10
2019-03-09T05:54:10.565Z,62.01
2019-03-09T05:59:15.762Z,62.25
2019-03-09T06:04:21.425Z,62.50
2019-03-09T06:09:26.772Z,62.68
2019-03-09T06:14:32.121Z,62.79
2019-03-09T06:19:37.673Z,62.96
2019-03-09T06:24:43.138Z,62.94
2019-03-09T06:29:48.391Z,63.46
2019-03-09T06:34:53.569Z,63.67
2019-03-09T06:39:58.794Z,63.79
2019-03-09T06:45:05.076Z,63.92
2019-03-09T06:50:17.549Z,63.96
2019-03-09T06:55:22.960Z,64.18
2019-03-09T07:00:33.450Z,64.22
2019-03-09T07:05:38.688Z,64.29
2019-03-09T07:10:43.878Z,64.45
2019-03-09T07:15:49.216Z,64.07
2019-03-09T07:20:54.249Z,64.39
2019-03-09T07:25:59.733Z,64.76
2019-03-09T07:31:05.697Z,66.41
2019-03-09T07:36:11.071Z,67.88
2019-03-09T07:41:16.493Z,69.25
2019-03-09T07:46:21.568Z,70.16
2019-03-09T07:51:26.644Z,69.87
2019-03-09T07:56:31.800Z,70.17
2019-03-09T08:01:38.166Z,70.43
2019-03-09T08:06:43.608Z,69.99
2019-03-09T08:11:48.873Z,69.77
2019-03-09T08:16:54.239Z,69.61
2019-03-09T08:21:59.518Z,69.11
2019-03-09T08:27:04.950Z,69.03
2019-03-09T08:32:10.227Z,68.87
2019-03-09T08:37:15.751Z,68.17
2019-03-09T08:42:21.033Z,67.09
2019-03-09T08:47:26.425Z,67.43
2019-03-09T08:52:31.659Z,67.26
2019-03-09T08:57:36.860Z,66.82
2019-03-09T09:02:42.153Z,67.01
2019-03-09T09:07:47.717Z,66.29
2019-03-09T09:12:53.219Z,65.97
2019-03-09T09:17:58.859Z,65.12
2019-03-09T09:23:04.612Z,66.37
2019-03-09T09:28:09.771Z,66.91
2019-03-09T09:33:15.121Z,67.97
2019-03-09T09:38:20.493Z,68.35
2019-03-09T09:43:25.955Z,68.35
2019-03-09T09:48:31.347Z,68.67
2019-03-09T09:53:36.567Z,69.21
2019-03-09T09:58:41.746Z,69.25
2019-03-09T10:03:46.742Z,69.81
2019-03-09T10:08:51.882Z,70.33
2019-03-09T10:13:57.252Z,70.40
2019-03-09T10:19:03.556Z,70.43
2019-03-09T10:24:08.922Z,70.32
2019-03-09T10:29:17.385Z,70.50
2019-03-09T10:34:22.633Z,70.50
2019-03-09T10:39:27.919Z,71.00
2019-03-09T10:44:33.224Z,71.15
2019-03-09T10:49:39.073Z,71.16
2019-03-09T10:54:44.549Z,72.52
2019-03-09T10:59:50.550Z,72.33
2019-03-09T11:04:55.981Z,72.21
2019-03-09T11:10:01.245Z,72.50
2019-03-09T11:15:08.553Z,72.50
2019-03-09T11:20:15.753Z,73.09
2019-03-09T11:25:21.129Z,74.08
2019-03-09T11:30:28.215Z,74.07
2019-03-09T11:35:34.036Z,73.65
2019-03-09T11:40:39.521Z,73.99
2019-03-09T11:45:44.598Z,74.53
2019-03-09T11:50:49.844Z,73.78
2019-03-09T11:55:55.104Z,74.31
2019-03-09T12:01:00.468Z,74.53
2019-03-09T12:06:05.826Z,75.31
2019-03-09T12:11:11.074Z,74.85
2019-03-09T12:16:16.544Z,74.50
2019-03-09T12:21:21.901Z,74.33
2019-03-09T12:26:27.331Z,74.88
2019-03-09T12:31:33.427Z,73.50
2019-03-09T12:36:38.791Z,73.13
2019-03-09T12:41:44.060Z,73.61
2019-03-09T12:46:49.521Z,73.33
2019-03-09T12:51:54.868Z,72.83
2019-03-09T12:57:00.200Z,72.97
2019-03-09T13:02:05.969Z,72.48
2019-03-09T13:07:11.231Z,71.77
2019-03-09T13:12:16.412Z,71.66
2019-03-09T13:17:21.973Z,70.79
2019-03-09T13:22:27.632Z,72.11
2019-03-09T13:27:33.001Z,73.38
2019-03-09T13:32:39.585Z,75.00
2019-03-09T13:37:45.160Z,76.29
2019-03-09T13:42:50.495Z,77.33
2019-03-09T13:47:55.775Z,77.33
2019-03-09T13:53:01.132Z,75.76
2019-03-09T13:58:06.481Z,75.74
2019-03-09T14:03:11.739Z,74.75
2019-03-09T14:08:16.998Z,75.10
2019-03-09T14:13:22.279Z,73.92
2019-03-09T14:18:27.510Z,74.53
2019-03-09T14:23:33.175Z,73.80
2019-03-09T14:28:38.220Z,72.67
2019-03-09T14:33:43.650Z,71.03
2019-03-09T14:38:48.672Z,68.91
2019-03-09T14:43:53.754Z,65.98
2019-03-09T14:48:58.846Z,66.56
2019-03-09T14:54:04.880Z,66.69
2019-03-09T14:59:10.164Z,67.41
2019-03-09T15:04:15.350Z,67.61
2019-03-09T15:09:20.778Z,67.61
2019-03-09T15:14:26.136Z,66.10
2019-03-09T15:19:31.430Z,65.33
2019-03-09T15:24:36.776Z,64.04
2019-03-09T15:29:42.016Z,59.85
2019-03-09T15:34:47.397Z,60.73
2019-03-09T15:39:52.627Z,60.57
2019-03-09T15:44:59.069Z,60.91
2019-03-09T15:50:06.831Z,61.71
2019-03-09T15:55:12.890Z,61.26
2019-03-09T16:00:23.209Z,61.45
2019-03-09T16:05:28.328Z,61.51
2019-03-09T16:10:33.791Z,61.57
2019-03-09T16:15:38.939Z,61.64
2019-03-09T16:20:43.987Z,61.81
2019-03-09T16:25:49.381Z,61.36
2019-03-09T16:30:54.848Z,61.14
2019-03-09T16:36:00.193Z,61.06
2019-03-09T16:41:05.457Z,61.36
2019-03-09T16:46:11.103Z,60.66
2019-03-09T16:51:16.357Z,60.82
2019-03-09T16:56:21.707Z,60.99
2019-03-09T17:01:27.068Z,61.25
2019-03-09T17:06:32.843Z,61.25
2019-03-09T17:11:38.298Z,61.15
2019-03-09T17:16:43.798Z,60.95
2019-03-09T17:21:49.025Z,61.11
2019-03-09T17:26:54.073Z,61.50
2019-03-09T17:31:59.423Z,61.51
2019-03-09T17:37:04.683Z,61.38
2019-03-09T17:42:11.497Z,61.87
2019-03-09T17:47:17.777Z,62.25
2019-03-09T17:52:23.215Z,62.36
2019-03-09T17:57:28.485Z,62.49
2019-03-09T18:02:33.698Z,63.27
2019-03-09T18:07:39.100Z,62.39
2019-03-09T18:12:44.362Z,62.53
2019-03-09T18:17:49.916Z,62.47
2019-03-09T18:22:55.371Z,62.52
2019-03-09T18:28:00.867Z,62.81
2019-03-09T18:33:06.394Z,62.97
2019-03-09T18:38:11.649Z,63.65
2019-03-09T18:43:17.018Z,64.46
2019-03-09T18:48:23.495Z,64.68
2019-03-09T18:53:28.964Z,65.17
2019-03-09T18:58:34.331Z,65.77
2019-03-09T19:03:40.801Z,66.81
2019-03-09T19:08:46.096Z,67.16
2019-03-09T19:13:51.327Z,67.29
2019-03-09T19:18:56.816Z,67.34
2019-03-09T19:24:01.919Z,66.83
2019-03-09T19:29:07.288Z,66.54
2019-03-09T19:34:12.387Z,66.53
2019-03-09T19:39:17.697Z,66.55
2019-03-09T19:44:22.929Z,66.82
2019-03-09T19:49:28.200Z,67.21
2019-03-09T19:54:33.580Z,67.69
2019-03-09T19:59:38.710Z,67.75
2019-03-09T20:04:44.050Z,68.41
2019-03-09T20:09:49.086Z,68.87
2019-03-09T20:14:54.385Z,69.11
2019-03-09T20:20:00.977Z,69.84
2019-03-09T20:25:07.882Z,69.71
2019-03-09T20:30:20.721Z,69.93
2019-03-09T20:35:26.173Z,70.09
2019-03-09T20:40:31.570Z,70.33
2019-03-09T20:45:37.167Z,70.19
2019-03-09T20:50:42.547Z,70.49
2019-03-09T20:55:48.025Z,70.16
2019-03-09T21:00:53.620Z,69.49
2019-03-09T21:05:59.057Z,69.30
2019-03-09T21:11:04.983Z,69.05
2019-03-09T21:16:10.350Z,69.14
2019-03-09T21:21:15.547Z,69.48
2019-03-09T21:26:20.844Z,69.70
2019-03-09T21:31:26.141Z,70.00
2019-03-09T21:36:31.262Z,69.89
2019-03-09T21:41:36.746Z,70.24
2019-03-09T21:46:42.258Z,70.33
2019-03-09T21:51:47.470Z,70.73
2019-03-09T21:56:53.254Z,70.44
2019-03-09T22:02:01.956Z,70.55
2019-03-09T22:07:07.463Z,70.60
2019-03-09T22:12:15.449Z,70.70
2019-03-09T22:17:20.873Z,70.75
2019-03-09T22:22:26.593Z,70.61
2019-03-09T22:27:31.909Z,70.38
2019-03-09T22:32:37.415Z,70.46
2019-03-09T22:37:42.848Z,70.69
2019-03-09T22:42:49.158Z,71.15
2019-03-09T22:47:54.541Z,71.08
2019-03-09T22:53:02.267Z,71.73
2019-03-09T22:58:07.630Z,71.41
2019-03-09T23:03:12.938Z,71.31
2019-03-09T23:08:18.304Z,71.15
2019-03-09T23:13:23.843Z,70.93
2019-03-09T23:18:29.199Z,70.81
2019-03-09T23:23:34.543Z,70.42
2019-03-09T23:28:44.772Z,70.39
2019-03-09T23:33:50.005Z,71.43
2019-03-09T23:38:55.328Z,72.08
2019-03-09T23:44:00.517Z,76.22
2019-03-09T23:49:05.770Z,76.72
2019-03-09T23:54:11.131Z,78.74
2019-03-09T23:59:16.686Z,80.32
